Time;durP1;ratioP1;P1;durP2;ratioP2;P2;SDS_P1;SDS_P2;PMS_P1;PMS_P2;Temp;Humidity;BMP_temperature;BMP_pressure;BME280_temperature;BME280_humidity;BME280_pressure;Samples;Min_cycle;Max_cycle;Signal;HPM_P1;HPM_P2
2022/04/04 00:01:52;;;;;;;10.48;8.48;;;;;;;1.64;99.67;93226.22;5029783;28;20053;-82
2022/04/04 00:04:19;;;;;;;13.98;9.25;;;;;;;2.27;100.00;93300.16;5029723;28;20489;-81
2022/04/04 00:06:48;;;;;;;11.52;8.48;;;;;;;1.62;98.21;93228.91;5029719;28;20509;-82
2022/04/04 00:09:15;;;;;;;11.02;8.05;;;;;;;1.72;98.23;93274.38;5029667;28;20056;-83
2022/04/04 00:11:42;;;;;;;11.15;8.40;;;;;;;1.39;98.54;93233.75;5029838;28;20095;-82
2022/04/04 00:14:10;;;;;;;12.07;9.30;;;;;;;1.97;99.48;93309.91;5029977;28;20484;-82
2022/04/04 00:16:37;;;;;;;13.60;9.18;;;;;;;1.58;100.00;93237.78;5029470;28;20058;-82
2022/04/04 00:19:05;;;;;;;10.50;8.40;;;;;;;0.96;97.31;93191.50;5042123;28;20171;-82
2022/04/04 00:21:32;;;;;;;11.70;9.38;;;;;;;1.24;100.00;93236.84;5046528;28;20662;-82
2022/04/04 00:24:01;;;;;;;11.95;9.02;;;;;;;1.55;100.00;93299.63;5040434;28;20178;-83
2022/04/04 00:26:29;;;;;;;13.18;10.23;;;;;;;1.55;100.00;93284.44;5038751;28;20451;-83
2022/04/04 00:28:55;;;;;;;12.60;9.23;;;;;;;1.64;100.00;93295.41;5043956;28;20053;-81
2022/04/04 00:31:22;;;;;;;11.30;8.30;;;;;;;1.53;100.00;93258.47;5049555;28;20058;-81
2022/04/04 00:33:49;;;;;;;11.02;8.85;;;;;;;1.70;100.00;93294.78;5049667;28;20049;-81
2022/04/04 00:36:16;;;;;;;9.23;7.18;;;;;;;1.70;100.00;93306.66;5048960;28;20086;-81
2022/04/04 00:38:43;;;;;;;10.63;7.97;;;;;;;1.86;100.00;93316.84;5049027;28;20048;-80
2022/04/04 00:41:13;;;;;;;12.27;8.35;;;;;;;1.89;100.00;93300.53;5049207;28;20059;-80
2022/04/04 00:43:40;;;;;;;13.07;8.98;;;;;;;2.18;100.00;93317.06;5049027;28;20136;-80
2022/04/04 00:46:07;;;;;;;13.95;9.60;;;;;;;2.38;100.00;93319.34;5048737;28;20045;-80
2022/04/04 00:48:35;;;;;;;11.93;8.75;;;;;;;2.26;99.86;93288.41;5048841;28;20103;-80
2022/04/04 00:51:02;;;;;;;11.40;8.90;;;;;;;2.55;98.78;93317.63;5049040;28;20053;-79
2022/04/04 00:53:31;;;;;;;10.75;7.32;;;;;;;2.51;97.61;93301.13;5048800;28;20508;-81
2022/04/04 00:55:58;;;;;;;9.18;7.13;;;;;;;2.54;96.65;93309.22;5048568;28;20045;-80
2022/04/04 00:58:30;;;;;;;12.05;7.30;;;;;;;2.54;97.21;93300.81;5048964;28;20417;-81
2022/04/04 01:00:58;;;;;;;11.15;7.97;;;;;;;2.71;96.57;93308.41;5048574;28;20136;-80
2022/04/04 01:03:25;;;;;;;10.32;7.05;;;;;;;2.64;95.82;93296.38;5048900;28;20115;-80
2022/04/04 01:05:52;;;;;;;11.00;7.13;;;;;;;2.49;95.35;93278.47;5048879;28;20048;-80
2022/04/04 01:08:19;;;;;;;9.15;7.15;;;;;;;2.75;95.63;93320.63;5048815;28;20049;-80
2022/04/04 01:10:46;;;;;;;17.73;12.95;;;;;;;2.72;95.61;93307.50;5048864;28;20419;-80
2022/04/04 01:13:14;;;;;;;10.32;7.55;;;;;;;2.57;94.06;93314.91;5050663;28;20049;-80
2022/04/04 01:15:42;;;;;;;9.10;6.68;;;;;;;2.23;93.25;93309.03;5051985;28;20045;-80
2022/04/04 01:18:12;;;;;;;10.25;6.30;;;;;;;2.00;95.23;93297.72;5051910;28;20569;-80
2022/04/04 01:20:39;;;;;;;9.00;6.32;;;;;;;1.94;97.49;93289.97;5051688;28;20051;-80
2022/04/04 01:23:07;;;;;;;8.60;7.03;;;;;;;1.85;95.12;93279.78;5052284;28;20458;-80
2022/04/04 01:25:36;;;;;;;10.13;7.45;;;;;;;1.94;98.88;93280.59;5052318;28;20048;-79
2022/04/04 01:28:04;;;;;;;10.48;8.00;;;;;;;2.06;99.94;93300.56;5051674;28;20495;-79
2022/04/04 01:30:32;;;;;;;9.55;7.50;;;;;;;2.05;99.26;93291.41;5052055;28;20102;-79
2022/04/04 01:32:59;;;;;;;11.18;8.20;;;;;;;2.02;98.81;93284.09;5051819;28;20147;-79
2022/04/04 01:35:26;;;;;;;10.98;8.43;;;;;;;2.07;100.00;93294.56;5052028;28;20049;-80
2022/04/04 01:37:53;;;;;;;11.75;8.68;;;;;;;2.07;100.00;93308.03;5051692;28;20056;-79
2022/04/04 01:40:20;;;;;;;10.70;8.82;;;;;;;2.02;100.00;93312.78;5051940;28;20056;-79
2022/04/04 01:42:54;;;;;;;14.02;10.23;;;;;;;2.02;98.81;93314.50;5051997;28;20091;-80
2022/04/04 01:46:23;;;;;;;13.57;10.15;;;;;;;1.96;99.10;93306.59;5051821;28;20138;-79
2022/04/04 01:48:10;;;;;;;12.68;8.57;;;;;;;1.89;98.64;93310.66;5051259;28;20053;-79
2022/04/04 01:50:37;;;;;;;14.95;9.40;;;;;;;1.72;98.80;93285.28;5051528;28;20403;-80
2022/04/04 01:55:48;;;;;;;13.10;9.90;;;;;;;1.84;100.00;93290.06;5051445;28;20095;-80
2022/04/04 01:58:16;;;;;;;13.27;10.52;;;;;;;1.90;100.00;93304.66;5051289;28;20053;-80
2022/04/04 02:00:43;;;;;;;12.50;9.73;;;;;;;1.89;100.00;93294.69;5051481;28;20057;-80
2022/04/04 02:03:10;;;;;;;14.30;9.93;;;;;;;1.90;100.00;93291.22;5051033;28;20106;-81
2022/04/04 02:05:37;;;;;;;17.23;11.88;;;;;;;1.87;100.00;93289.78;5051267;28;20392;-80
2022/04/04 02:08:05;;;;;;;16.27;11.27;;;;;;;1.84;100.00;93290.88;5050919;28;20053;-80
2022/04/04 02:10:31;;;;;;;16.08;10.65;;;;;;;1.12;100.00;93162.16;5051302;28;20044;-81
2022/04/04 02:12:58;;;;;;;16.38;11.00;;;;;;;2.05;100.00;93286.31;5050910;28;20049;-80
2022/04/04 02:15:27;;;;;;;14.65;10.38;;;;;;;1.97;100.00;93282.84;5051007;28;20095;-80
2022/04/04 02:17:53;;;;;;;13.50;10.32;;;;;;;1.91;100.00;93280.13;5051045;28;20055;-81
2022/04/04 02:20:21;;;;;;;13.32;10.20;;;;;;;1.68;100.00;93263.78;5050407;28;20056;-82
2022/04/04 02:22:48;;;;;;;14.50;9.13;;;;;;;0.94;100.00;93195.94;5028731;28;20045;-81
2022/04/04 02:25:15;;;;;;;12.98;9.40;;;;;;;1.10;100.00;93212.13;5030027;28;20053;-82
2022/04/04 02:27:42;;;;;;;13.23;9.50;;;;;;;1.45;100.00;93273.66;5030625;28;20049;-81
2022/04/04 02:30:10;;;;;;;11.82;8.95;;;;;;;0.99;100.00;93192.94;5030997;28;20140;-82
2022/04/04 02:32:38;;;;;;;12.88;9.27;;;;;;;1.37;100.00;93260.94;5030742;28;20053;-82
2022/04/04 02:35:06;;;;;;;12.82;8.77;;;;;;;1.36;100.00;93237.38;5030984;28;20056;-81
2022/04/04 02:37:33;;;;;;;10.65;8.45;;;;;;;0.68;100.00;93125.94;5030959;28;20057;-81
2022/04/04 02:40:00;;;;;;;11.68;8.00;;;;;;;1.44;100.00;93242.47;5031092;28;20053;-81
2022/04/04 02:42:27;;;;;;;11.95;8.60;;;;;;;1.18;100.00;93186.84;5031136;28;20049;-81
2022/04/04 02:44:55;;;;;;;14.80;9.60;;;;;;;1.52;100.00;93239.19;5030793;28;20046;-81
2022/04/04 02:47:22;;;;;;;10.90;8.70;;;;;;;1.54;100.00;93244.09;5030384;28;20111;-81
2022/04/04 02:49:50;;;;;;;10.65;7.90;;;;;;;1.68;100.00;93271.38;5030208;28;20057;-82
2022/04/04 02:52:17;;;;;;;11.95;8.43;;;;;;;1.69;100.00;93262.00;5030233;28;20624;-81
2022/04/04 02:54:44;;;;;;;12.65;8.63;;;;;;;1.33;100.00;93202.25;5030456;28;20061;-82
2022/04/04 02:57:10;;;;;;;12.95;9.20;;;;;;;1.40;100.00;93220.97;5030131;28;20420;-82
2022/04/04 02:59:37;;;;;;;16.92;10.35;;;;;;;1.56;100.00;93237.94;5029917;28;20053;-81
2022/04/04 03:02:04;;;;;;;12.75;9.10;;;;;;;1.72;100.00;93259.97;5030684;28;20054;-81
2022/04/04 03:04:31;;;;;;;15.93;9.40;;;;;;;1.65;100.00;93253.94;5030248;28;20049;-82
2022/04/04 03:07:00;;;;;;;14.07;9.70;;;;;;;1.63;100.00;93265.97;5030315;28;20079;-82
2022/04/04 03:09:27;;;;;;;13.57;9.10;;;;;;;1.51;100.00;93245.19;5030146;28;20049;-82
2022/04/04 03:11:54;;;;;;;15.57;11.10;;;;;;;1.57;100.00;93248.84;5030138;28;20049;-82
2022/04/04 03:14:20;;;;;;;14.55;9.98;;;;;;;1.17;100.00;93181.00;5029937;28;20132;-81
2022/04/04 03:16:47;;;;;;;14.48;10.75;;;;;;;1.57;100.00;93238.72;5030069;28;20057;-82
2022/04/04 03:19:14;;;;;;;16.40;11.05;;;;;;;1.61;100.00;93247.59;5030174;28;20071;-81
2022/04/04 03:21:41;;;;;;;15.35;11.30;;;;;;;1.56;100.00;93248.06;5030325;28;20049;-81
2022/04/04 03:24:10;;;;;;;17.30;11.27;;;;;;;1.77;100.00;93263.78;5029580;28;20045;-80
2022/04/04 03:26:37;;;;;;;47.92;27.77;;;;;;;1.77;100.00;93277.25;5029404;28;20045;-80
2022/04/04 03:29:04;;;;;;;20.20;13.43;;;;;;;1.80;100.00;93279.47;5029649;28;20107;-81
2022/04/04 03:31:31;;;;;;;21.40;13.50;;;;;;;1.76;100.00;93283.25;5029525;28;20511;-80
2022/04/04 03:33:58;;;;;;;23.23;13.80;;;;;;;1.43;100.00;93251.00;5029284;28;20057;-81
2022/04/04 03:36:25;;;;;;;19.55;13.07;;;;;;;1.69;100.00;93297.47;5028754;28;20485;-81
2022/04/04 03:38:51;;;;;;;19.42;12.93;;;;;;;1.72;100.00;93299.72;5029344;28;20049;-81
2022/04/04 03:41:20;;;;;;;19.48;12.75;;;;;;;1.64;100.00;93281.94;5029342;28;20052;-83
2022/04/04 03:43:46;;;;;;;17.08;11.57;;;;;;;1.21;100.00;93222.00;5029166;28;20045;-83
2022/04/04 03:46:14;;;;;;;19.55;13.27;;;;;;;1.71;100.00;93291.31;5029222;28;20041;-82
2022/04/04 03:48:41;;;;;;;23.55;14.93;;;;;;;1.76;100.00;93302.72;5030016;28;20076;-82
2022/04/04 03:51:09;;;;;;;28.40;17.98;;;;;;;1.83;100.00;93306.22;5029988;28;20115;-82
2022/04/04 03:53:36;;;;;;;29.20;20.05;;;;;;;1.44;100.00;93244.22;5029156;28;20060;-83
2022/04/04 03:56:03;;;;;;;36.45;29.45;;;;;;;1.90;100.00;93314.00;5029247;28;20063;-82
2022/04/04 03:58:31;;;;;;;48.38;42.85;;;;;;;1.91;100.00;93308.78;5029531;28;20115;-82
2022/04/04 04:00:58;;;;;;;53.50;47.50;;;;;;;1.95;100.00;93309.28;5029525;28;20060;-82
2022/04/04 04:03:25;;;;;;;50.15;44.20;;;;;;;1.83;100.00;93289.28;5030034;28;20041;-82
2022/04/04 04:06:11;;;;;;;46.70;39.50;;;;;;;2.02;100.00;93320.38;5029183;28;20417;-82
2022/04/04 04:08:37;;;;;;;;;;;;;;;2.04;100.00;93328.59;5029342;28;20045;-83
2022/04/04 04:11:04;;;;;;;23.63;18.75;;;;;;;1.89;100.00;93310.66;5029086;28;20355;-83
2022/04/04 04:13:32;;;;;;;16.30;13.45;;;;;;;1.63;100.00;93281.16;5041939;28;20060;-83
2022/04/04 04:15:59;;;;;;;15.23;11.30;;;;;;;1.94;100.00;93323.66;5047984;28;20049;-83
2022/04/04 04:18:26;;;;;;;15.13;12.32;;;;;;;1.76;100.00;93310.31;5049415;28;20045;-83
2022/04/04 04:20:53;;;;;;;16.25;11.38;;;;;;;1.98;100.00;93339.34;5049357;28;20143;-83
2022/04/04 04:23:20;;;;;;;14.50;9.95;;;;;;;2.02;100.00;93340.63;5049207;28;20056;-83
2022/04/04 04:25:47;;;;;;;16.90;12.10;;;;;;;1.57;100.00;93274.94;5049515;28;20052;-82
2022/04/04 04:28:15;;;;;;;12.23;8.60;;;;;;;2.07;100.00;93340.16;5049147;28;20119;-84
2022/04/04 04:30:43;;;;;;;13.52;9.07;;;;;;;1.89;100.00;93317.50;5048852;28;20518;-83
2022/04/04 04:33:10;;;;;;;18.15;10.73;;;;;;;1.62;100.00;93277.00;5048821;28;20057;-83
2022/04/04 04:35:37;;;;;;;16.08;11.77;;;;;;;1.79;100.00;93300.66;5050801;28;20140;-83
2022/04/04 04:38:05;;;;;;;16.75;11.77;;;;;;;2.14;100.00;93358.91;5048795;28;20053;-83
2022/04/04 04:40:33;;;;;;;18.15;10.93;;;;;;;2.17;100.00;93355.25;5048625;28;20095;-83
2022/04/04 04:43:00;;;;;;;52.00;25.75;;;;;;;1.64;100.00;93281.94;5048841;28;20053;-83
2022/04/04 04:45:28;;;;;;;41.85;20.98;;;;;;;2.19;100.00;93366.84;5048739;28;20041;-82
2022/04/04 04:47:56;;;;;;;32.60;17.75;;;;;;;2.24;100.00;93358.75;5050653;28;20057;-82
2022/04/04 04:50:24;;;;;;;25.77;13.98;;;;;;;2.19;100.00;93348.28;5053061;28;20049;-83
2022/04/04 04:52:52;;;;;;;22.33;13.10;;;;;;;2.31;100.00;93358.94;5052588;28;20095;-83
2022/04/04 04:55:20;;;;;;;25.10;14.07;;;;;;;1.49;100.00;93239.50;5052477;28;20044;-83
2022/04/04 04:57:47;;;;;;;24.42;14.70;;;;;;;2.32;100.00;93365.59;5052935;28;20049;-83
2022/04/04 05:00:17;;;;;;;22.42;13.40;;;;;;;1.96;100.00;93303.25;5052756;28;20493;-83
2022/04/04 05:02:44;;;;;;;28.48;16.58;;;;;;;2.12;100.00;93330.38;5053103;28;20071;-83
2022/04/04 05:05:12;;;;;;;26.70;15.63;;;;;;;2.44;100.00;93351.66;5053228;28;20051;-83
2022/04/04 05:07:39;;;;;;;24.83;14.52;;;;;;;2.51;100.00;93372.91;5052519;28;20053;-84
2022/04/04 05:10:06;;;;;;;21.90;13.68;;;;;;;1.99;100.00;93292.81;5052902;28;20045;-83
2022/04/04 05:12:33;;;;;;;19.75;14.05;;;;;;;2.41;100.00;93344.38;5052122;28;20060;-83
2022/04/04 05:15:00;;;;;;;20.60;14.45;;;;;;;2.50;100.00;93348.50;5052237;28;20052;-83
2022/04/04 05:17:27;;;;;;;24.02;15.02;;;;;;;2.24;100.00;93316.47;5052322;28;20064;-83
2022/04/04 05:19:57;;;;;;;27.77;18.13;;;;;;;2.74;100.00;93384.97;5052278;28;20159;-83
2022/04/04 05:22:25;;;;;;;24.45;17.27;;;;;;;2.80;100.00;93375.97;5052158;28;20045;-84
2022/04/04 05:24:52;;;;;;;23.42;14.85;;;;;;;2.84;100.00;93378.97;5051849;28;20045;-83
2022/04/04 05:27:19;;;;;;;22.85;14.95;;;;;;;2.45;100.00;93316.97;5051499;28;20045;-83
2022/04/04 05:29:46;;;;;;;22.23;15.27;;;;;;;2.88;100.00;93383.56;5052150;28;20443;-84
2022/04/04 05:32:13;;;;;;;31.33;17.80;;;;;;;2.98;100.00;93385.16;5052619;28;20152;-84
2022/04/04 05:34:40;;;;;;;23.85;16.63;;;;;;;2.92;100.00;93382.31;5052297;28;20190;-84
2022/04/04 05:37:07;;;;;;;37.53;20.63;;;;;;;2.98;100.00;93364.88;5030003;28;20469;-84
2022/04/04 05:39:36;;;;;;;26.38;15.82;;;;;;;2.47;99.65;93322.66;5030579;28;20053;-85
2022/04/04 05:42:03;;;;;;;22.02;15.50;;;;;;;2.79;99.95;93387.84;5031463;28;20057;-85
2022/04/04 05:44:29;;;;;;;22.92;14.25;;;;;;;2.60;100.00;93393.22;5031572;28;20061;-85
2022/04/04 05:46:56;;;;;;;22.23;13.77;;;;;;;2.38;98.70;93381.00;5031331;28;20046;-85
2022/04/04 05:49:23;;;;;;;21.23;14.13;;;;;;;2.10;100.00;93317.06;5031440;28;20052;-86
2022/04/04 05:51:53;;;;;;;24.00;16.23;;;;;;;2.13;100.00;93297.28;5031112;28;20552;-84
2022/04/04 05:54:20;;;;;;;22.40;15.63;;;;;;;2.23;100.00;93322.47;5031382;28;20064;-84
2022/04/04 05:56:48;;;;;;;24.83;16.92;;;;;;;2.38;100.00;93340.41;5031574;28;20053;-84
2022/04/04 05:59:15;;;;;;;18.70;13.75;;;;;;;2.42;99.04;93367.97;5030699;28;20107;-84
2022/04/04 06:01:42;;;;;;;18.95;12.55;;;;;;;2.40;98.72;93368.13;5031689;28;20058;-84
2022/04/04 06:04:09;;;;;;;23.45;15.43;;;;;;;2.61;100.00;93398.16;5031935;28;20524;-84
2022/04/04 06:06:36;;;;;;;22.02;15.68;;;;;;;2.75;100.00;93376.44;5031811;28;20057;-84
2022/04/04 06:09:03;;;;;;;28.98;21.63;;;;;;;3.14;100.00;93395.31;5031753;28;20448;-84
2022/04/04 06:11:31;;;;;;;24.98;16.13;;;;;;;3.09;99.82;93381.53;5031919;28;20056;-85
2022/04/04 06:13:59;;;;;;;27.85;19.75;;;;;;;2.34;99.66;93288.44;5031040;28;20519;-84
2022/04/04 06:16:26;;;;;;;26.70;19.90;;;;;;;2.88;99.75;93330.28;5031746;28;20120;-84
2022/04/04 06:18:53;;;;;;;25.70;17.38;;;;;;;3.20;97.61;93338.06;5031808;28;20488;-84
2022/04/04 06:21:20;;;;;;;21.80;14.93;;;;;;;3.81;94.63;93396.03;5031641;28;20488;-85
2022/04/04 06:23:47;;;;;;;25.50;16.98;;;;;;;4.03;93.36;93395.47;5031400;28;20057;-85
2022/04/04 06:26:14;;;;;;;19.48;12.68;;;;;;;3.73;92.05;93318.06;5031505;28;20072;-84
2022/04/04 06:28:41;;;;;;;17.88;12.57;;;;;;;3.97;90.65;93341.81;5031090;28;21260;-84
2022/04/04 06:31:10;;;;;;;20.33;13.45;;;;;;;3.99;88.06;93364.53;5031259;28;20061;-85
2022/04/04 06:33:37;;;;;;;19.60;13.13;;;;;;;4.55;87.57;93402.53;5030263;28;20065;-84
2022/04/04 06:36:05;;;;;;;17.40;12.43;;;;;;;3.61;87.82;93344.78;5030730;28;20079;-84
2022/04/04 06:38:32;;;;;;;16.67;12.07;;;;;;;3.95;89.17;93409.00;5030517;28;20045;-85
2022/04/04 06:40:58;;;;;;;18.33;13.32;;;;;;;4.26;91.71;93408.28;5030381;28;20084;-84
2022/04/04 06:43:25;;;;;;;19.38;11.20;;;;;;;3.71;87.98;93314.91;5030327;28;20095;-84
2022/04/04 06:45:52;;;;;;;20.85;11.70;;;;;;;4.10;88.35;93358.25;5030616;28;20126;-84
2022/04/04 06:48:22;;;;;;;18.30;12.95;;;;;;;3.76;87.42;93349.19;5030367;28;20053;-85
2022/04/04 06:50:49;;;;;;;16.75;10.05;;;;;;;3.51;88.29;93347.50;5030389;28;20575;-84
2022/04/04 06:53:16;;;;;;;19.77;10.95;;;;;;;3.70;87.59;93414.94;5030263;28;20071;-84
2022/04/04 06:55:44;;;;;;;19.88;12.10;;;;;;;3.95;89.03;93414.91;5030783;28;20053;-85
2022/04/04 06:58:11;;;;;;;20.80;10.50;;;;;;;3.58;92.44;93366.25;5030300;28;20504;-84
2022/04/04 07:00:41;;;;;;;23.40;11.15;;;;;;;3.56;90.08;93340.19;5030015;28;20064;-84
2022/04/04 07:03:08;;;;;;;19.50;10.35;;;;;;;4.07;89.73;93420.41;5031064;28;20069;-84
2022/04/04 07:05:37;;;;;;;24.83;12.15;;;;;;;3.68;92.33;93342.38;5030681;28;20061;-84
2022/04/04 07:08:04;;;;;;;18.20;10.20;;;;;;;3.43;89.25;93348.31;5030688;28;20095;-84
2022/04/04 07:10:32;;;;;;;24.80;12.25;;;;;;;3.98;90.97;93376.41;5029197;28;20045;-84
2022/04/04 07:12:59;;;;;;;18.20;9.85;;;;;;;4.64;86.67;93417.78;5029802;28;20054;-85
2022/04/04 07:15:28;;;;;;;19.83;10.15;;;;;;;5.15;86.08;93434.31;5030138;28;20052;-84
2022/04/04 07:17:55;;;;;;;19.73;8.45;;;;;;;4.42;80.59;93366.69;5030633;28;20061;-84
2022/04/04 07:20:22;;;;;;;22.92;8.73;;;;;;;4.73;79.89;93416.78;5030332;28;20060;-84
2022/04/04 07:22:51;;;;;;;30.42;9.05;;;;;;;4.86;80.29;93400.94;5029737;28;20134;-84
2022/04/04 07:25:18;;;;;;;23.15;8.43;;;;;;;5.46;80.66;93426.59;5029906;28;20049;-84
2022/04/04 07:27:46;;;;;;;18.85;8.98;;;;;;;5.53;78.33;93405.50;5029813;28;20049;-84
2022/04/04 07:30:17;;;;;;;18.58;8.90;;;;;;;5.24;77.73;93349.25;5029855;28;20136;-84
2022/04/04 07:32:45;;;;;;;21.48;9.18;;;;;;;5.77;80.83;93368.00;5029969;28;20085;-86
2022/04/04 07:35:12;;;;;;;15.30;7.18;;;;;;;5.86;74.01;93377.16;5029418;28;20132;-85
2022/04/04 07:37:43;;;;;;;24.42;8.43;;;;;;;6.33;76.74;93427.97;5029117;28;20059;-85
2022/04/04 07:40:14;;;;;;;22.90;9.65;;;;;;;6.36;77.41;93400.38;5029670;28;20063;-85
2022/04/04 07:42:43;;;;;;;16.02;8.25;;;;;;;6.35;71.18;93442.13;5029619;28;20413;-84
2022/04/04 07:45:13;;;;;;;21.30;9.32;;;;;;;5.99;69.04;93430.88;5029294;28;20508;-84
2022/04/04 07:47:41;;;;;;;26.25;10.10;;;;;;;5.88;71.67;93423.66;5029121;28;20528;-85
2022/04/04 07:50:11;;;;;;;20.20;10.40;;;;;;;6.36;76.76;93420.78;5029110;28;20056;-84
2022/04/04 07:52:38;;;;;;;21.00;10.77;;;;;;;6.85;75.01;93440.75;5028894;28;20099;-84
2022/04/04 07:55:06;;;;;;;22.33;9.68;;;;;;;6.93;76.04;93400.56;5029333;28;20061;-86
2022/04/04 07:57:34;;;;;;;22.23;8.95;;;;;;;7.26;69.90;93416.38;5029201;28;20064;-82
2022/04/04 08:00:01;;;;;;;25.25;10.10;;;;;;;7.73;70.06;93455.09;5029371;28;20042;-83
2022/04/04 08:02:28;;;;;;;22.45;9.43;;;;;;;7.40;67.25;93381.50;5029297;28;20053;-83
2022/04/04 08:04:55;;;;;;;19.30;8.63;;;;;;;7.75;65.87;93451.38;5028988;28;20564;-83
2022/04/04 08:07:22;;;;;;;13.88;8.75;;;;;;;7.46;68.96;93376.41;5029160;28;20493;-85
2022/04/04 08:09:49;;;;;;;17.15;8.63;;;;;;;7.55;71.22;93354.06;5029806;28;20103;-86
2022/04/04 08:12:16;;;;;;;10.95;7.65;;;;;;;8.43;69.35;93439.72;5029788;28;20103;-85
2022/04/04 08:14:47;;;;;;;14.55;8.00;;;;;;;8.59;66.51;93432.75;5029766;28;20055;-84
2022/04/04 08:17:14;;;;;;;11.55;7.40;;;;;;;8.42;66.06;93378.47;5028718;28;20045;-84
2022/04/04 08:19:41;;;;;;;17.92;9.27;;;;;;;8.29;66.76;93340.84;5029011;28;20052;-84
2022/04/04 08:22:08;;;;;;;12.02;7.80;;;;;;;8.72;66.19;93379.97;5031071;28;20045;-83
2022/04/04 08:24:34;;;;;;;11.43;7.78;;;;;;;9.22;67.39;93428.38;5033438;28;20053;-83
2022/04/04 08:27:01;;;;;;;12.02;7.47;;;;;;;9.01;62.70;93380.63;5047281;28;20053;-84
2022/04/04 08:29:28;;;;;;;14.88;8.40;;;;;;;8.88;64.52;93371.16;5051706;28;20527;-83
2022/04/04 08:31:56;;;;;;;16.10;8.50;;;;;;;8.90;63.53;93376.88;5052719;28;20845;-83
2022/04/04 08:34:23;;;;;;;16.10;9.13;;;;;;;9.05;65.43;93361.31;5052909;28;20053;-84
2022/04/04 08:36:50;;;;;;;12.65;6.55;;;;;;;8.99;63.99;93344.97;5052847;28;20052;-83
2022/04/04 08:39:17;;;;;;;10.25;6.60;;;;;;;9.03;63.27;93317.16;5052727;28;20063;-82
2022/04/04 08:41:44;;;;;;;10.77;5.88;;;;;;;9.00;58.82;93389.28;5052584;28;20053;-82
2022/04/04 08:44:11;;;;;;;14.13;7.40;;;;;;;8.73;65.06;93366.19;5052538;28;20052;-84
2022/04/04 08:46:39;;;;;;;8.77;6.10;;;;;;;8.58;61.26;93315.94;5052292;28;20049;-84
2022/04/04 08:49:08;;;;;;;10.52;6.95;;;;;;;9.01;62.28;93360.91;5052220;28;20056;-84
2022/04/04 08:51:35;;;;;;;11.02;7.00;;;;;;;8.85;61.32;93326.22;5052609;28;20053;-82
2022/04/04 08:54:03;;;;;;;9.95;6.72;;;;;;;9.38;63.96;93357.97;5052522;28;20084;-82
2022/04/04 08:56:30;;;;;;;14.23;7.25;;;;;;;9.82;63.62;93385.75;5052763;28;20491;-82
2022/04/04 08:58:58;;;;;;;13.52;7.35;;;;;;;9.73;62.05;93357.72;5052180;28;20565;-82
2022/04/04 09:01:27;;;;;;;13.98;7.20;;;;;;;9.91;62.67;93351.19;5052541;28;20496;-82
2022/04/04 09:04:14;;;;;;;9.25;6.05;;;;;;;10.14;62.03;93381.50;5052228;28;20053;-82
2022/04/04 09:06:49;;;;;;;11.63;6.40;;;;;;;10.11;61.67;93371.66;5052401;28;20099;-82
2022/04/04 09:09:19;;;;;;;13.60;6.78;;;;;;;9.87;59.35;93339.75;5051787;28;20096;-82
2022/04/04 09:11:53;;;;;;;11.25;6.85;;;;;;;9.75;60.81;93324.19;5052256;28;20060;-81
2022/04/04 09:14:23;;;;;;;9.57;5.18;;;;;;;9.99;61.09;93352.72;5052165;28;20454;-82
2022/04/04 09:16:56;;;;;;;8.65;5.28;;;;;;;9.91;61.27;93327.28;5052370;28;20143;-82
2022/04/04 09:19:31;;;;;;;7.88;5.63;;;;;;;10.03;62.25;93328.25;5052112;28;20095;-82
2022/04/04 09:22:03;;;;;;;9.02;4.95;;;;;;;10.11;60.08;93322.91;5052157;28;20053;-82
2022/04/04 09:24:44;;;;;;;8.38;4.40;;;;;;;10.40;60.15;93351.59;5052375;28;20063;-83
2022/04/04 09:27:12;;;;;;;5.95;4.07;;;;;;;10.19;54.27;93314.19;5052057;28;20107;-82
2022/04/04 09:29:42;;;;;;;7.68;4.82;;;;;;;10.23;59.79;93314.56;5052269;28;20060;-83
2022/04/04 09:32:12;;;;;;;16.73;11.98;;;;;;;10.37;59.45;93333.25;5052008;28;20057;-83
2022/04/04 09:35:12;;;;;;;9.38;5.93;;;;;;;10.49;58.04;93333.41;5050870;28;20057;-82
2022/04/04 09:37:41;;;;;;;9.40;6.55;;;;;;;10.54;58.22;93328.44;4989644;28;20058;-82
2022/04/04 09:40:12;;;;;;;8.07;4.70;;;;;;;10.46;57.98;93288.38;5039244;28;20045;-82
2022/04/04 09:42:39;;;;;;;12.80;9.13;;;;;;;10.99;58.48;93326.78;5051335;28;20056;-82
2022/04/04 09:45:08;;;;;;;8.38;6.22;;;;;;;10.88;56.39;93299.97;5051712;28;20484;-83
2022/04/04 09:47:53;;;;;;;8.07;6.57;;;;;;;10.95;57.21;93309.22;5051493;28;20049;-83
2022/04/04 09:50:41;;;;;;;7.82;5.90;;;;;;;10.85;57.25;93283.19;5051435;28;20064;-82
2022/04/04 09:53:10;;;;;;;5.72;4.15;;;;;;;11.10;56.75;93300.38;5051602;28;20446;-83
2022/04/04 09:55:39;;;;;;;5.45;3.42;;;;;;;10.89;53.18;93294.63;5050947;28;20497;-82
2022/04/04 09:58:08;;;;;;;5.57;4.10;;;;;;;11.07;54.50;93300.81;5051415;28;20059;-83
2022/04/04 10:00:37;;;;;;;5.32;3.40;;;;;;;10.99;53.55;93286.44;5051412;28;20413;-83
2022/04/04 10:03:07;;;;;;;13.25;7.63;;;;;;;10.67;56.37;93233.31;5050842;28;20432;-83
2022/04/04 10:05:40;;;;;;;5.78;3.95;;;;;;;10.98;55.39;93254.03;5051207;28;20057;-83
2022/04/04 10:08:08;;;;;;;5.25;4.70;;;;;;;11.22;52.94;93283.28;5051249;28;20139;-83
2022/04/04 10:10:35;;;;;;;5.18;2.75;;;;;;;11.15;50.17;93248.38;5051221;28;20167;-83
2022/04/04 10:13:02;;;;;;;4.57;3.38;;;;;;;11.43;53.08;93265.88;5040233;28;20049;-84
2022/04/04 10:15:29;;;;;;;6.40;3.85;;;;;;;11.55;53.86;93275.47;5038635;28;20419;-83
2022/04/04 10:17:57;;;;;;;3.75;2.97;;;;;;;11.38;53.24;93273.44;5040179;28;20085;-84
2022/04/04 10:20:25;;;;;;;5.53;3.40;;;;;;;11.41;53.28;93272.22;5039783;28;20075;-83
2022/04/04 10:23:01;;;;;;;5.68;3.78;;;;;;;11.50;52.05;93273.53;5039715;28;20056;-85
2022/04/04 10:25:30;;;;;;;5.95;3.83;;;;;;;11.27;51.91;93249.22;5039000;28;20408;-83
2022/04/04 10:27:59;;;;;;;9.52;3.58;;;;;;;11.07;52.62;93209.06;5040719;28;20045;-84
2022/04/04 10:30:34;;;;;;;4.50;3.10;;;;;;;11.40;52.73;93250.09;5038119;28;20048;-83
2022/04/04 10:33:01;;;;;;;4.37;3.27;;;;;;;11.53;53.44;93251.75;5037280;28;20107;-84
2022/04/04 10:35:30;;;;;;;4.18;3.38;;;;;;;11.17;52.18;93197.50;5039708;28;20132;-83
2022/04/04 10:38:03;;;;;;;5.88;2.88;;;;;;;11.45;51.41;93197.03;5039400;28;20050;-84
2022/04/04 10:40:33;;;;;;;3.72;2.40;;;;;;;11.24;48.46;93190.50;5040022;28;20140;-83
2022/04/04 10:43:12;;;;;;;5.93;3.92;;;;;;;11.37;50.47;93189.59;5041049;28;20052;-84
2022/04/04 10:45:54;;;;;;;11.02;6.38;;;;;;;11.85;50.95;93254.19;5040981;28;20052;-84
2022/04/04 10:48:21;;;;;;;7.03;4.70;;;;;;;11.75;51.62;93246.94;5040499;28;20470;-84
2022/04/04 10:50:48;;;;;;;9.75;5.25;;;;;;;11.93;51.18;93240.22;5039018;28;20144;-84
2022/04/04 10:53:36;;;;;;;10.13;5.10;;;;;;;12.14;51.17;93254.44;5042758;28;20120;-84
2022/04/04 10:56:06;;;;;;;6.93;3.65;;;;;;;12.14;49.19;93246.72;5050447;28;20057;-85
2022/04/04 10:58:33;;;;;;;4.00;2.63;;;;;;;11.77;48.61;93243.16;5050137;28;20516;-84
2022/04/04 11:01:05;;;;;;;8.25;5.10;;;;;;;11.99;49.72;93244.50;5046593;28;20057;-83
2022/04/04 11:03:34;;;;;;;5.00;2.90;;;;;;;11.65;50.34;93190.84;5050225;28;20057;-84
2022/04/04 11:09:19;;;;;;;5.15;3.60;;;;;;;11.88;48.61;93231.34;5049960;28;20510;-85
2022/04/04 11:11:54;;;;;;;7.20;3.75;;;;;;;11.91;49.52;93237.88;5050321;28;20045;-84
2022/04/04 11:14:43;;;;;;;5.25;3.17;;;;;;;11.60;50.02;93213.88;5049978;28;20071;-83
2022/04/04 11:17:23;;;;;;;6.88;4.90;;;;;;;11.11;51.23;93121.25;5049634;28;20110;-84
2022/04/04 11:19:53;;;;;;;10.50;6.53;;;;;;;11.80;51.04;93212.84;5029955;28;20132;-84
2022/04/04 11:22:22;;;;;;;12.63;7.40;;;;;;;11.54;50.38;93165.84;5029996;28;20566;-84
2022/04/04 11:24:55;;;;;;;6.97;4.03;;;;;;;11.83;50.95;93214.97;5030531;28;20052;-84
2022/04/04 11:27:25;;;;;;;9.25;6.00;;;;;;;11.47;49.99;93153.06;5030145;28;20443;-83
2022/04/04 11:29:53;;;;;;;7.75;3.55;;;;;;;11.47;50.79;93150.50;5029665;28;20182;-85
2022/04/04 11:32:30;;;;;;;8.88;6.45;;;;;;;11.34;51.19;93136.03;5029519;28;20053;-84
2022/04/04 11:35:01;;;;;;;7.80;5.13;;;;;;;11.52;50.73;93147.28;5009673;28;20060;-84
2022/04/04 11:37:29;;;;;;;6.45;3.38;;;;;;;11.66;49.92;93156.41;4990687;28;20145;-84
2022/04/04 11:40:08;;;;;;;5.60;3.72;;;;;;;11.97;49.97;93179.56;4990203;28;20399;-84